Time;durP1;ratioP1;P1;durP2;ratioP2;P2;SDS_P1;SDS_P2;PMS_P1;PMS_P2;Temp;Humidity;BMP_temperature;BMP_pressure;BME280_temperature;BME280_humidity;BME280_pressure;Samples;Min_cycle;Max_cycle;Signal;HPM_P1;HPM_P2
2023/03/27 00:02:21;;;;;;;1.00;0.80;;;;;;;;;;5041906;28;20025;-66
2023/03/27 00:05:07;;;;;;;1.17;0.60;;;;;;;;;;5027657;28;20489;-68
2023/03/27 00:07:54;;;;;;;1.45;0.80;;;;;;;;;;5026576;28;20091;-67
2023/03/27 00:10:39;;;;;;;0.60;0.60;;;;;;;;;;5028251;28;20026;-69
2023/03/27 00:13:25;;;;;;;0.63;0.60;;;;;;;;;;5042712;28;20056;-65
2023/03/27 00:16:10;;;;;;;0.73;0.73;;;;;;;;;;5028996;28;20025;-65
2023/03/27 00:18:55;;;;;;;0.65;0.60;;;;;;;;;;5030345;28;20045;-66
2023/03/27 00:21:43;;;;;;;0.80;0.80;;;;;;;;;;5028869;28;20104;-69
2023/03/27 00:24:29;;;;;;;1.30;0.70;;;;;;;;;;5027877;28;20036;-70
2023/03/27 00:27:14;;;;;;;1.08;0.80;;;;;;;;;;5028711;28;20029;-70
2023/03/27 00:29:59;;;;;;;0.75;0.75;;;;;;;;;;5025783;28;20036;-70
2023/03/27 00:32:45;;;;;;;2.60;0.90;;;;;;;;;;5027489;28;20033;-70
2023/03/27 00:35:30;;;;;;;0.88;0.85;;;;;;;;;;5025549;28;20036;-71
2023/03/27 00:38:17;;;;;;;1.02;0.82;;;;;;;;;;5028273;28;20037;-70
2023/03/27 00:41:03;;;;;;;0.80;0.80;;;;;;;;;;5031247;28;20040;-71
2023/03/27 00:43:51;;;;;;;0.95;0.90;;;;;;;;;;5009478;28;20082;-79
2023/03/27 00:46:38;;;;;;;2.67;1.05;;;;;;;;;;5028545;28;20056;-80
2023/03/27 00:49:25;;;;;;;2.72;1.10;;;;;;;;;;5028480;28;20038;-81
2023/03/27 00:52:12;;;;;;;1.13;1.05;;;;;;;;;;5027494;28;20040;-80
2023/03/27 00:54:59;;;;;;;1.00;0.90;;;;;;;;;;5028505;28;20025;-81
2023/03/27 00:57:47;;;;;;;0.80;0.80;;;;;;;;;;5025171;28;20025;-72
2023/03/27 01:00:33;;;;;;;0.90;0.90;;;;;;;;;;5027433;28;20026;-67
2023/03/27 01:03:19;;;;;;;2.42;1.00;;;;;;;;;;5028549;28;20510;-72
2023/03/27 01:06:05;;;;;;;0.93;0.88;;;;;;;;;;5027047;28;20119;-70
2023/03/27 01:08:50;;;;;;;1.00;1.00;;;;;;;;;;5023816;28;20025;-70
2023/03/27 01:11:40;;;;;;;1.30;1.00;;;;;;;;;;5032086;28;20026;-70
2023/03/27 01:14:25;;;;;;;;;;;;;;;;;;5029432;28;20018;-70
2023/03/27 01:17:27;;;;;;;1.00;0.73;;;;;;;;;;5025982;28;19992;-76
2023/03/27 01:20:19;;;;;;;1.52;1.40;;;;;;;;;;5015680;28;20408;-66
2023/03/27 01:23:14;;;;;;;1.92;0.90;;;;;;;;;;5027283;28;20044;-68
2023/03/27 01:26:18;;;;;;;2.67;1.13;;;;;;;;;;5040689;28;20622;-66
2023/03/27 01:29:03;;;;;;;2.50;0.90;;;;;;;;;;5027976;28;20037;-69
2023/03/27 01:32:07;;;;;;;0.70;0.70;;;;;;;;;;5027207;28;20127;-67
2023/03/27 01:35:24;;;;;;;1.25;1.10;;;;;;;;;;5040394;28;20162;-78
2023/03/27 01:38:19;;;;;;;1.70;1.20;;;;;;;;;;4987160;28;20037;-69
2023/03/27 01:41:13;;;;;;;1.85;1.20;;;;;;;;;;5027043;28;20021;-69
2023/03/27 01:44:11;;;;;;;1.40;1.30;;;;;;;;;;5027024;28;20028;-69
2023/03/27 01:47:01;;;;;;;1.13;1.02;;;;;;;;;;5023667;28;20037;-69
2023/03/27 01:49:53;;;;;;;1.48;1.17;;;;;;;;;;5040586;28;20052;-69
2023/03/27 01:52:40;;;;;;;1.67;1.00;;;;;;;;;;5027164;28;20495;-70
2023/03/27 01:55:28;;;;;;;1.08;0.98;;;;;;;;;;5027202;28;20376;-76
2023/03/27 01:58:16;;;;;;;2.15;1.10;;;;;;;;;;5041044;28;20029;-73
2023/03/27 02:01:03;;;;;;;0.85;0.85;;;;;;;;;;5027223;28;20113;-71
2023/03/27 02:03:50;;;;;;;1.25;1.02;;;;;;;;;;5023562;28;20026;-73
2023/03/27 02:06:40;;;;;;;2.60;0.93;;;;;;;;;;5024195;28;20025;-74
2023/03/27 02:09:29;;;;;;;1.17;1.08;;;;;;;;;;5026858;28;20025;-74
2023/03/27 02:12:20;;;;;;;2.50;1.70;;;;;;;;;;5023853;28;20443;-77
2023/03/27 02:15:09;;;;;;;4.55;2.05;;;;;;;;;;5031386;28;20091;-71
2023/03/27 02:18:08;;;;;;;5.00;2.58;;;;;;;;;;5027940;28;20515;-70
2023/03/27 02:20:54;;;;;;;6.20;2.88;;;;;;;;;;5023226;28;20061;-73
2023/03/27 02:23:39;;;;;;;4.53;2.40;;;;;;;;;;5026988;28;20116;-70
2023/03/27 02:26:25;;;;;;;6.63;3.10;;;;;;;;;;5023741;28;20057;-68
2023/03/27 02:29:19;;;;;;;6.82;3.38;;;;;;;;;;5017065;28;20017;-71
2023/03/27 02:32:11;;;;;;;6.22;2.75;;;;;;;;;;5030593;28;20488;-65
2023/03/27 02:35:02;;;;;;;7.95;3.65;;;;;;;;;;5026405;28;20029;-81
2023/03/27 02:37:48;;;;;;;10.48;4.00;;;;;;;;;;5030455;28;20030;-80
2023/03/27 02:40:45;;;;;;;8.20;3.33;;;;;;;;;;5017419;28;20017;-81
2023/03/27 02:43:34;;;;;;;13.10;3.85;;;;;;;;;;5026906;28;20055;-80
2023/03/27 02:46:22;;;;;;;11.80;3.45;;;;;;;;;;5012803;28;20531;-81
2023/03/27 02:49:10;;;;;;;8.57;4.88;;;;;;;;;;5030768;28;20183;-68
2023/03/27 02:51:59;;;;;;;12.95;4.85;;;;;;;;;;5012582;28;20045;-75
2023/03/27 02:54:47;;;;;;;7.57;3.53;;;;;;;;;;5015907;28;20055;-75
2023/03/27 02:57:38;;;;;;;7.38;3.67;;;;;;;;;;5028921;28;20032;-78
2023/03/27 03:00:26;;;;;;;11.07;4.95;;;;;;;;;;5029362;28;20037;-76
2023/03/27 03:03:12;;;;;;;14.75;5.05;;;;;;;;;;5029515;28;20148;-75
2023/03/27 03:05:57;;;;;;;16.48;5.18;;;;;;;;;;5030497;28;20070;-78
2023/03/27 03:08:45;;;;;;;11.52;4.25;;;;;;;;;;5016380;28;20025;-75
2023/03/27 03:11:33;;;;;;;13.68;4.20;;;;;;;;;;5031094;28;20512;-75
2023/03/27 03:14:23;;;;;;;12.30;4.70;;;;;;;;;;5017348;28;20052;-75
2023/03/27 03:17:08;;;;;;;18.73;4.75;;;;;;;;;;5027583;28;20108;-74
2023/03/27 03:19:54;;;;;;;14.43;4.93;;;;;;;;;;5032106;28;20033;-76
2023/03/27 03:22:40;;;;;;;14.00;4.43;;;;;;;;;;5044238;28;20037;-75
2023/03/27 03:25:26;;;;;;;11.60;3.95;;;;;;;;;;5016209;28;20021;-65
2023/03/27 03:28:11;;;;;;;9.02;3.30;;;;;;;;;;5029194;28;20546;-73
2023/03/27 03:30:57;;;;;;;11.27;4.32;;;;;;;;;;5013986;28;20687;-70
2023/03/27 03:33:43;;;;;;;13.25;4.63;;;;;;;;;;5028659;28;20040;-71
2023/03/27 03:36:29;;;;;;;13.95;4.70;;;;;;;;;;5028438;28;20037;-72
2023/03/27 03:39:15;;;;;;;14.82;3.25;;;;;;;;;;5012199;28;20044;-71
2023/03/27 03:42:00;;;;;;;8.77;3.47;;;;;;;;;;5030283;28;20430;-70
2023/03/27 03:44:45;;;;;;;12.63;4.43;;;;;;;;;;5029442;28;20750;-74
2023/03/27 03:47:31;;;;;;;13.40;3.28;;;;;;;;;;5028698;28;20064;-75
2023/03/27 03:50:16;;;;;;;9.45;3.13;;;;;;;;;;5030554;28;20400;-75
2023/03/27 03:53:01;;;;;;;11.02;3.55;;;;;;;;;;5029354;28;20068;-73
2023/03/27 03:55:49;;;;;;;11.65;3.72;;;;;;;;;;5015560;28;20025;-75
2023/03/27 03:58:34;;;;;;;13.10;5.03;;;;;;;;;;5029859;28;20033;-75
2023/03/27 04:01:21;;;;;;;12.77;3.72;;;;;;;;;;5029031;28;20104;-74
2023/03/27 04:04:08;;;;;;;16.48;3.35;;;;;;;;;;5027852;28;20400;-80
2023/03/27 04:06:56;;;;;;;10.98;3.75;;;;;;;;;;5045866;28;20155;-79
2023/03/27 04:09:42;;;;;;;6.83;3.33;;;;;;;;;;5029498;28;20449;-78
2023/03/27 04:12:27;;;;;;;12.27;3.38;;;;;;;;;;5029810;28;20120;-80
2023/03/27 04:15:12;;;;;;;12.15;3.38;;;;;;;;;;5048671;28;20101;-80
2023/03/27 04:17:58;;;;;;;15.65;3.13;;;;;;;;;;5025905;28;20096;-80
2023/03/27 04:20:48;;;;;;;8.35;2.85;;;;;;;;;;5028708;28;20528;-69
2023/03/27 04:23:33;;;;;;;10.35;2.80;;;;;;;;;;5028086;28;20030;-81
2023/03/27 04:26:25;;;;;;;11.48;3.88;;;;;;;;;;5029917;28;20464;-80
2023/03/27 04:29:10;;;;;;;7.50;2.80;;;;;;;;;;5015836;28;20029;-79
2023/03/27 04:31:56;;;;;;;12.85;3.15;;;;;;;;;;5025914;28;20542;-79
2023/03/27 04:34:41;;;;;;;11.10;3.45;;;;;;;;;;5015189;28;20029;-79
2023/03/27 04:37:26;;;;;;;9.32;3.05;;;;;;;;;;5028884;28;20408;-80
2023/03/27 04:40:13;;;;;;;12.10;2.95;;;;;;;;;;5022930;28;20520;-63
2023/03/27 04:42:58;;;;;;;11.45;2.40;;;;;;;;;;5030961;28;20047;-75
2023/03/27 04:45:47;;;;;;;13.85;3.38;;;;;;;;;;5023955;28;20469;-76
2023/03/27 04:48:32;;;;;;;15.07;3.35;;;;;;;;;;5022114;28;20061;-75
2023/03/27 04:51:18;;;;;;;7.32;3.47;;;;;;;;;;5035722;28;20120;-73
2023/03/27 04:54:04;;;;;;;9.85;2.65;;;;;;;;;;5025388;28;20072;-75
2023/03/27 04:56:49;;;;;;;10.07;2.58;;;;;;;;;;5036262;28;20425;-75
2023/03/27 04:59:35;;;;;;;13.18;3.50;;;;;;;;;;5024573;28;20057;-71
2023/03/27 05:02:21;;;;;;;7.40;1.77;;;;;;;;;;5030498;28;20033;-65
2023/03/27 05:05:07;;;;;;;8.40;2.10;;;;;;;;;;5027523;28;20108;-65
2023/03/27 05:07:53;;;;;;;11.57;2.83;;;;;;;;;;5029382;28;20037;-64
2023/03/27 05:10:38;;;;;;;21.77;2.78;;;;;;;;;;5030199;28;20547;-66
2023/03/27 05:13:23;;;;;;;14.00;3.28;;;;;;;;;;5029730;28;20496;-65
2023/03/27 05:16:09;;;;;;;9.20;2.72;;;;;;;;;;5028355;28;20099;-75
2023/03/27 05:18:54;;;;;;;9.50;1.92;;;;;;;;;;5029347;28;20503;-74
2023/03/27 05:21:39;;;;;;;12.80;2.80;;;;;;;;;;5031482;28;20030;-73
2023/03/27 05:24:25;;;;;;;8.80;2.80;;;;;;;;;;5027704;28;20433;-72
2023/03/27 05:27:11;;;;;;;5.97;2.17;;;;;;;;;;5023199;28;20037;-76
2023/03/27 05:29:56;;;;;;;8.05;2.17;;;;;;;;;;5020252;28;20034;-73
2023/03/27 05:32:47;;;;;;;8.70;2.30;;;;;;;;;;5018878;28;20033;-74
2023/03/27 05:35:33;;;;;;;7.22;2.15;;;;;;;;;;5024728;28;20037;-70
2023/03/27 05:38:18;;;;;;;7.90;2.63;;;;;;;;;;5021089;28;20704;-66
2023/03/27 05:41:03;;;;;;;7.22;2.08;;;;;;;;;;5009192;28;20565;-66
2023/03/27 05:43:50;;;;;;;7.00;1.90;;;;;;;;;;5007013;28;20021;-66
2023/03/27 05:46:35;;;;;;;16.00;2.75;;;;;;;;;;5026004;28;20025;-65
2023/03/27 05:49:20;;;;;;;12.95;3.00;;;;;;;;;;5019654;28;20068;-67
2023/03/27 05:52:07;;;;;;;8.98;2.17;;;;;;;;;;5017821;28;20102;-66
2023/03/27 05:54:52;;;;;;;9.15;2.97;;;;;;;;;;5024745;28;20032;-71
2023/03/27 05:57:41;;;;;;;10.23;3.17;;;;;;;;;;5022503;28;20025;-82
2023/03/27 06:00:26;;;;;;;7.70;2.10;;;;;;;;;;5026012;28;20072;-85
2023/03/27 06:03:12;;;;;;;6.78;2.42;;;;;;;;;;5024606;28;20057;-80
2023/03/27 06:05:58;;;;;;;7.85;2.20;;;;;;;;;;5024456;28;20580;-80
2023/03/27 06:08:44;;;;;;;8.70;2.58;;;;;;;;;;5026534;28;20676;-78
2023/03/27 06:11:30;;;;;;;8.95;2.00;;;;;;;;;;5030447;28;20087;-68
2023/03/27 06:14:15;;;;;;;12.07;2.78;;;;;;;;;;5024384;28;20083;-68
2023/03/27 06:17:01;;;;;;;8.52;2.25;;;;;;;;;;5022707;28;20064;-68
2023/03/27 06:19:46;;;;;;;8.10;2.17;;;;;;;;;;5044055;28;20029;-70
2023/03/27 06:22:31;;;;;;;9.20;2.70;;;;;;;;;;5027945;28;20099;-71
2023/03/27 06:25:17;;;;;;;9.85;2.67;;;;;;;;;;5022635;28;20500;-73
2023/03/27 06:28:07;;;;;;;11.93;2.13;;;;;;;;;;5023579;28;20029;-71
2023/03/27 06:30:53;;;;;;;14.73;2.50;;;;;;;;;;5021855;28;20036;-66
2023/03/27 06:33:39;;;;;;;10.02;2.95;;;;;;;;;;5021749;28;20033;-65
2023/03/27 06:36:26;;;;;;;7.40;1.85;;;;;;;;;;5022737;28;20464;-65
2023/03/27 06:39:11;;;;;;;9.05;2.47;;;;;;;;;;5010978;28;20025;-64
2023/03/27 06:41:57;;;;;;;8.18;2.47;;;;;;;;;;5021010;28;20029;-64
2023/03/27 06:44:42;;;;;;;11.57;2.58;;;;;;;;;;5024442;28;20412;-69
2023/03/27 06:47:28;;;;;;;5.95;2.08;;;;;;;;;;5038228;28;20029;-67
2023/03/27 06:50:13;;;;;;;14.90;3.35;;;;;;;;;;5024346;28;20095;-72
2023/03/27 06:52:59;;;;;;;11.35;2.92;;;;;;;;;;5020740;28;20038;-69
2023/03/27 06:55:44;;;;;;;9.85;3.38;;;;;;;;;;5006480;28;20037;-69
2023/03/27 06:58:30;;;;;;;10.07;2.42;;;;;;;;;;5038291;28;20028;-70
2023/03/27 07:01:15;;;;;;;6.47;2.40;;;;;;;;;;5023991;28;20472;-69
2023/03/27 07:04:00;;;;;;;10.55;2.50;;;;;;;;;;5023881;28;20765;-71
2023/03/27 07:06:47;;;;;;;8.57;2.10;;;;;;;;;;5023877;28;20026;-72
2023/03/27 07:09:33;;;;;;;7.60;2.72;;;;;;;;;;5023036;28;20030;-71
2023/03/27 07:12:18;;;;;;;6.75;2.42;;;;;;;;;;5022606;28;20454;-72
2023/03/27 07:15:05;;;;;;;5.07;2.00;;;;;;;;;;5014224;28;20031;-76
2023/03/27 07:17:54;;;;;;;6.93;1.55;;;;;;;;;;5025333;28;20029;-71
2023/03/27 07:20:40;;;;;;;8.30;2.45;;;;;;;;;;5030654;28;20090;-75
2023/03/27 07:23:25;;;;;;;8.10;2.42;;;;;;;;;;5026937;28;20059;-72
2023/03/27 07:26:10;;;;;;;9.23;2.45;;;;;;;;;;5024620;28;20032;-74
2023/03/27 07:28:56;;;;;;;6.60;2.25;;;;;;;;;;5025926;28;20029;-69
2023/03/27 07:31:43;;;;;;;8.88;2.08;;;;;;;;;;5024346;28;20427;-67
2023/03/27 07:34:28;;;;;;;10.68;3.00;;;;;;;;;;5041541;28;20030;-68
2023/03/27 07:37:14;;;;;;;7.85;2.15;;;;;;;;;;5030172;28;20083;-68
2023/03/27 07:40:00;;;;;;;6.95;2.22;;;;;;;;;;5014673;28;20021;-68
2023/03/27 07:42:46;;;;;;;14.00;3.25;;;;;;;;;;5011007;28;20179;-66
2023/03/27 07:45:33;;;;;;;11.25;2.13;;;;;;;;;;5023421;28;20388;-66
2023/03/27 07:48:18;;;;;;;5.63;2.08;;;;;;;;;;5026329;28;20504;-71
2023/03/27 07:51:04;;;;;;;10.43;2.53;;;;;;;;;;5011789;28;20029;-70
2023/03/27 07:53:54;;;;;;;7.35;3.13;;;;;;;;;;5010928;28;20041;-72
2023/03/27 07:56:39;;;;;;;10.15;2.00;;;;;;;;;;5025792;28;20029;-71
2023/03/27 07:59:25;;;;;;;11.80;2.75;;;;;;;;;;5023996;28;20033;-71
2023/03/27 08:02:11;;;;;;;12.43;2.15;;;;;;;;;;5012967;28;20022;-78
2023/03/27 08:04:56;;;;;;;10.88;2.13;;;;;;;;;;5025649;28;20044;-75
2023/03/27 08:07:44;;;;;;;7.68;1.90;;;;;;;;;;5028135;28;20040;-73
2023/03/27 08:10:29;;;;;;;5.57;2.13;;;;;;;;;;5022306;28;20036;-75
2023/03/27 08:13:14;;;;;;;7.88;2.10;;;;;;;;;;5024035;28;20481;-72
2023/03/27 08:16:01;;;;;;;12.35;2.10;;;;;;;;;;5025769;28;20099;-77
2023/03/27 08:18:48;;;;;;;9.90;1.92;;;;;;;;;;5014066;28;20029;-80
2023/03/27 08:21:33;;;;;;;7.90;2.22;;;;;;;;;;5026775;28;20037;-72
2023/03/27 08:24:19;;;;;;;8.40;1.88;;;;;;;;;;5029128;28;20047;-68
2023/03/27 08:27:05;;;;;;;6.03;1.90;;;;;;;;;;5023422;28;20120;-71
2023/03/27 08:29:50;;;;;;;14.48;2.67;;;;;;;;;;5023606;28;20053;-70
2023/03/27 08:32:35;;;;;;;6.28;1.90;;;;;;;;;;5037638;28;20041;-71
2023/03/27 08:35:20;;;;;;;7.68;2.10;;;;;;;;;;5025351;28;20587;-70
2023/03/27 08:38:06;;;;;;;10.10;2.65;;;;;;;;;;5023784;28;20044;-67
2023/03/27 08:40:52;;;;;;;7.13;2.08;;;;;;;;;;5024976;28;20021;-76
2023/03/27 08:43:40;;;;;;;6.25;2.15;;;;;;;;;;5010354;28;20017;-71
2023/03/27 08:46:27;;;;;;;6.65;1.92;;;;;;;;;;5023272;28;20037;-73
2023/03/27 08:49:16;;;;;;;8.30;2.25;;;;;;;;;;5020535;28;20085;-74
2023/03/27 08:52:24;;;;;;;12.07;2.95;;;;;;;;;;5038374;28;20131;-70
2023/03/27 08:55:33;;;;;;;8.88;2.58;;;;;;;;;;5026568;28;20025;-71
2023/03/27 08:58:19;;;;;;;7.85;2.13;;;;;;;;;;5024714;28;20033;-66
2023/03/27 09:01:25;;;;;;;9.10;2.83;;;;;;;;;;5025075;28;20556;-65
2023/03/27 09:04:16;;;;;;;9.73;2.00;;;;;;;;;;5021830;28;20025;-64
2023/03/27 09:07:11;;;;;;;6.72;2.65;;;;;;;;;;5040385;28;20128;-64
2023/03/27 09:10:02;;;;;;;7.60;2.90;;;;;;;;;;5022013;28;20029;-66
2023/03/27 09:12:51;;;;;;;6.00;1.77;;;;;;;;;;5021904;28;20689;-63
2023/03/27 09:15:51;;;;;;;7.28;2.20;;;;;;;;;;5025763;28;20032;-75
2023/03/27 09:18:44;;;;;;;5.95;1.65;;;;;;;;;;5028079;28;20033;-73
2023/03/27 09:21:35;;;;;;;6.30;2.13;;;;;;;;;;5026993;28;20053;-73
2023/03/27 09:24:29;;;;;;;4.68;1.73;;;;;;;;;;5013447;28;20108;-74
2023/03/27 09:27:21;;;;;;;9.88;2.22;;;;;;;;;;5011783;28;20377;-73
2023/03/27 09:30:10;;;;;;;6.93;2.13;;;;;;;;;;5021174;28;20029;-75
2023/03/27 09:32:58;;;;;;;8.00;1.95;;;;;;;;;;5027130;28;20108;-73
2023/03/27 09:35:43;;;;;;;9.57;2.22;;;;;;;;;;5009415;28;20025;-72
2023/03/27 09:38:40;;;;;;;7.72;1.80;;;;;;;;;;5024858;28;20491;-73
2023/03/27 09:41:30;;;;;;;5.82;1.80;;;;;;;;;;5021667;28;20059;-75
2023/03/27 09:44:34;;;;;;;8.48;1.90;;;;;;;;;;5025924;28;20080;-71
2023/03/27 09:47:40;;;;;;;8.90;2.08;;;;;;;;;;5037318;28;20048;-72
2023/03/27 09:50:33;;;;;;;5.80;1.40;;;;;;;;;;5039877;28;20060;-72
2023/03/27 09:53:24;;;;;;;3.97;1.55;;;;;;;;;;5035657;28;20033;-72
2023/03/27 09:56:15;;;;;;;3.03;1.73;;;;;;;;;;5021874;28;20097;-72
2023/03/27 09:59:06;;;;;;;6.15;2.28;;;;;;;;;;5035676;28;20120;-76
2023/03/27 10:01:54;;;;;;;7.30;2.00;;;;;;;;;;5035180;28;20034;-75
2023/03/27 10:04:55;;;;;;;7.53;2.10;;;;;;;;;;5025628;28;20537;-75
2023/03/27 10:07:41;;;;;;;9.15;2.10;;;;;;;;;;5023761;28;20029;-73
2023/03/27 10:10:31;;;;;;;4.72;1.70;;;;;;;;;;5022797;28;20122;-67
2023/03/27 10:13:17;;;;;;;9.05;1.92;;;;;;;;;;5020927;28;20041;-75
2023/03/27 10:16:04;;;;;;;8.10;1.80;;;;;;;;;;5022830;28;20026;-68
2023/03/27 10:18:52;;;;;;;15.65;6.05;;;;;;;;;;5026092;28;20036;-69
2023/03/27 10:21:38;;;;;;;23.05;9.60;;;;;;;;;;5025787;28;20029;-77
2023/03/27 10:24:31;;;;;;;28.05;13.05;;;;;;;;;;5023110;28;20099;-73
2023/03/27 10:27:24;;;;;;;6.97;2.00;;;;;;;;;;5025146;28;20048;-73
2023/03/27 10:30:26;;;;;;;7.05;1.80;;;;;;;;;;5038610;28;20112;-73
2023/03/27 10:33:11;;;;;;;4.63;1.88;;;;;;;;;;5010428;28;20088;-70
2023/03/27 10:35:58;;;;;;;8.18;2.00;;;;;;;;;;5015157;28;20040;-68
2023/03/27 10:38:49;;;;;;;6.47;1.92;;;;;;;;;;5043408;28;20676;-66
2023/03/27 10:41:37;;;;;;;7.30;2.10;;;;;;;;;;5035240;28;20470;-68
2023/03/27 10:44:24;;;;;;;5.47;1.80;;;;;;;;;;5037282;28;20041;-67
2023/03/27 10:47:33;;;;;;;6.70;1.90;;;;;;;;;;5025019;28;20034;-65
2023/03/27 10:50:20;;;;;;;4.60;1.87;;;;;;;;;;5023362;28;20041;-72
2023/03/27 10:53:25;;;;;;;9.18;2.22;;;;;;;;;;5040930;28;20057;-70
2023/03/27 10:56:16;;;;;;;9.07;3.05;;;;;;;;;;5014214;28;20033;-71
2023/03/27 10:59:07;;;;;;;5.13;2.33;;;;;;;;;;5027264;28;20423;-72
2023/03/27 11:01:54;;;;;;;5.30;1.98;;;;;;;;;;5036515;28;20025;-72
2023/03/27 11:04:54;;;;;;;7.70;2.47;;;;;;;;;;5014017;28;20470;-72
2023/03/27 11:07:45;;;;;;;6.40;2.65;;;;;;;;;;5014286;28;20373;-71
2023/03/27 11:10:36;;;;;;;4.72;1.80;;;;;;;;;;5015260;28;20481;-73
2023/03/27 11:13:26;;;;;;;4.72;1.85;;;;;;;;;;5027857;28;20075;-71
2023/03/27 11:16:24;;;;;;;7.85;2.17;;;;;;;;;;5027043;28;20017;-73
2023/03/27 11:19:09;;;;;;;5.45;1.85;;;;;;;;;;5024127;28;20029;-74
2023/03/27 11:22:10;;;;;;;3.05;1.60;;;;;;;;;;5028273;28;20045;-72
2023/03/27 11:25:01;;;;;;;6.45;2.25;;;;;;;;;;5022589;28;20033;-72
2023/03/27 11:27:52;;;;;;;6.35;1.77;;;;;;;;;;5025262;28;20128;-79
2023/03/27 11:30:43;;;;;;;7.60;2.30;;;;;;;;;;5014112;28;20021;-75
2023/03/27 11:33:32;;;;;;;4.40;1.65;;;;;;;;;;5039327;28;20033;-79
2023/03/27 11:36:24;;;;;;;5.13;1.63;;;;;;;;;;5020533;28;20668;-77
2023/03/27 11:39:18;;;;;;;5.97;1.33;;;;;;;;;;5028994;28;20037;-76
2023/03/27 11:42:09;;;;;;;6.97;2.22;;;;;;;;;;5031898;28;20358;-71
2023/03/27 11:44:55;;;;;;;7.47;1.77;;;;;;;;;;5027251;28;20064;-66
2023/03/27 11:47:50;;;;;;;6.95;1.73;;;;;;;;;;5024719;28;20415;-75
2023/03/27 11:50:35;;;;;;;3.92;1.38;;;;;;;;;;5024510;28;20147;-71
2023/03/27 11:53:37;;;;;;;6.40;2.40;;;;;;;;;;5025402;28;20485;-72
2023/03/27 11:56:40;;;;;;;10.48;2.50;;;;;;;;;;5025016;28;20022;-76
2023/03/27 11:59:25;;;;;;;5.80;2.40;;;;;;;;;;5022212;28;20634;-71
2023/03/27 12:02:29;;;;;;;7.40;1.75;;;;;;;;;;5023657;28;20017;-72
2023/03/27 12:05:33;;;;;;;7.00;2.13;;;;;;;;;;5042666;28;20029;-78
2023/03/27 12:08:26;;;;;;;5.95;1.80;;;;;;;;;;5029697;28;20091;-78
2023/03/27 12:11:11;;;;;;;10.27;1.90;;;;;;;;;;5011895;28;20017;-76
2023/03/27 12:13:56;;;;;;;4.57;1.73;;;;;;;;;;5024818;28;20514;-73
2023/03/27 12:16:42;;;;;;;7.30;2.70;;;;;;;;;;5024226;28;20122;-75
2023/03/27 12:19:27;;;;;;;4.53;1.58;;;;;;;;;;5023739;28;20116;-69
2023/03/27 12:22:16;;;;;;;5.38;1.80;;;;;;;;;;5024374;28;20152;-65
2023/03/27 12:25:20;;;;;;;2.72;1.30;;;;;;;;;;5009463;28;20021;-67
2023/03/27 12:28:34;;;;;;;4.75;1.50;;;;;;;;;;5021294;28;20033;-67
2023/03/27 12:31:20;;;;;;;4.68;1.33;;;;;;;;;;4990964;28;20078;-66
2023/03/27 12:34:13;;;;;;;6.78;1.67;;;;;;;;;;5023865;28;20458;-69
2023/03/27 12:36:58;;;;;;;6.72;1.92;;;;;;;;;;5023657;28;20030;-66
2023/03/27 12:39:47;;;;;;;4.65;1.38;;;;;;;;;;5025493;28;20029;-74
2023/03/27 12:42:41;;;;;;;3.55;1.50;;;;;;;;;;5011727;28;20052;-74
2023/03/27 12:45:26;;;;;;;5.43;1.55;;;;;;;;;;5008608;28;20120;-72
2023/03/27 12:48:16;;;;;;;2.67;1.10;;;;;;;;;;5025416;28;20041;-74
2023/03/27 12:51:02;;;;;;;;;;;;;;;;;;5025137;28;20021;-72
2023/03/27 12:53:49;;;;;;;1.95;1.10;;;;;;;;;;5022579;28;19921;-72
2023/03/27 12:56:35;;;;;;;6.38;1.10;;;;;;;;;;5027101;28;20450;-70
2023/03/27 12:59:22;;;;;;;6.25;2.10;;;;;;;;;;5022740;28;20026;-73
2023/03/27 13:02:14;;;;;;;4.15;1.35;;;;;;;;;;5028001;28;20025;-74
2023/03/27 13:05:09;;;;;;;5.40;1.30;;;;;;;;;;5024827;28;20064;-78
2023/03/27 13:07:54;;;;;;;8.13;1.48;;;;;;;;;;5023814;28;20476;-79
2023/03/27 13:10:43;;;;;;;8.27;1.60;;;;;;;;;;5024525;28;20179;-76
2023/03/27 13:13:38;;;;;;;6.25;1.75;;;;;;;;;;5026173;28;20033;-74
2023/03/27 13:16:23;;;;;;;7.68;1.60;;;;;;;;;;5026748;28;20041;-69
2023/03/27 13:19:27;;;;;;;8.43;1.80;;;;;;;;;;5024987;28;20029;-73
2023/03/27 13:22:12;;;;;;;5.00;1.17;;;;;;;;;;5040821;28;20612;-74
2023/03/27 13:25:11;;;;;;;2.97;1.20;;;;;;;;;;5027848;28;20033;-76
2023/03/27 13:28:15;;;;;;;5.75;1.67;;;;;;;;;;5024386;28;20037;-75
2023/03/27 13:31:01;;;;;;;7.43;1.27;;;;;;;;;;5016768;28;20037;-74
2023/03/27 13:34:07;;;;;;;6.13;1.25;;;;;;;;;;5003968;28;20052;-73
2023/03/27 13:37:27;;;;;;;5.20;1.38;;;;;;;;;;5024913;28;20041;-69
2023/03/27 13:40:19;;;;;;;7.55;1.80;;;;;;;;;;5027483;28;20090;-68
2023/03/27 13:43:04;;;;;;;2.55;1.40;;;;;;;;;;5026528;28;20029;-68
2023/03/27 13:45:51;;;;;;;7.70;1.63;;;;;;;;;;5023725;28;20499;-68
2023/03/27 13:48:49;;;;;;;7.28;1.50;;;;;;;;;;5024817;28;20056;-68
2023/03/27 13:51:37;;;;;;;6.03;2.00;;;;;;;;;;5036487;28;20026;-68
2023/03/27 13:54:41;;;;;;;6.47;1.80;;;;;;;;;;5021318;28;20037;-69
2023/03/27 13:57:41;;;;;;;7.55;1.88;;;;;;;;;;5038173;28;20045;-68
2023/03/27 14:00:26;;;;;;;3.25;1.52;;;;;;;;;;5024053;28;20122;-68
2023/03/27 14:03:21;;;;;;;4.47;2.13;;;;;;;;;;5010525;28;20021;-66
2023/03/27 14:06:25;;;;;;;7.00;1.75;;;;;;;;;;5020562;28;20025;-66
2023/03/27 14:09:11;;;;;;;7.05;1.90;;;;;;;;;;5023888;28;20041;-66
2023/03/27 14:12:05;;;;;;;3.65;2.17;;;;;;;;;;5023599;28;20479;-68
2023/03/27 14:15:15;;;;;;;12.40;3.38;;;;;;;;;;5009686;28;20025;-68
2023/03/27 14:18:19;;;;;;;7.07;1.73;;;;;;;;;;5008777;28;20048;-71
2023/03/27 14:21:08;;;;;;;8.40;1.92;;;;;;;;;;5015130;28;20033;-68
2023/03/27 14:23:57;;;;;;;8.52;2.58;;;;;;;;;;5039597;28;20029;-71
2023/03/27 14:26:44;;;;;;;7.53;2.17;;;;;;;;;;5025274;28;20184;-71
2023/03/27 14:29:31;;;;;;;6.68;1.92;;;;;;;;;;5029182;28;20115;-78
2023/03/27 14:32:16;;;;;;;6.93;2.03;;;;;;;;;;5029903;28;20044;-71
2023/03/27 14:35:05;;;;;;;5.03;1.50;;;;;;;;;;5029729;28;20025;-69
2023/03/27 14:38:02;;;;;;;5.35;1.70;;;;;;;;;;5028104;28;20124;-69
2023/03/27 14:40:50;;;;;;;7.85;2.50;;;;;;;;;;5041414;28;20087;-68
2023/03/27 14:43:36;;;;;;;4.80;1.40;;;;;;;;;;5006923;28;20097;-71
2023/03/27 14:46:22;;;;;;;5.47;1.80;;;;;;;;;;5028199;28;20116;-74
2023/03/27 14:49:10;;;;;;;5.25;1.85;;;;;;;;;;5028217;28;20114;-69
2023/03/27 14:51:59;;;;;;;6.10;2.28;;;;;;;;;;5026971;28;20072;-76
2023/03/27 14:54:44;;;;;;;7.90;1.60;;;;;;;;;;5041588;28;20051;-71
2023/03/27 14:57:29;;;;;;;6.82;2.00;;;;;;;;;;5039614;28;20056;-73
2023/03/27 15:00:18;;;;;;;5.30;1.65;;;;;;;;;;5024308;28;20036;-75
2023/03/27 15:03:12;;;;;;;7.80;3.05;;;;;;;;;;5027234;28;20440;-72
2023/03/27 15:06:12;;;;;;;7.65;2.30;;;;;;;;;;5015055;28;20439;-68
2023/03/27 15:08:59;;;;;;;6.28;2.30;;;;;;;;;;5024038;28;20087;-70
2023/03/27 15:11:48;;;;;;;6.72;1.98;;;;;;;;;;5037647;28;20564;-69
2023/03/27 15:14:34;;;;;;;3.60;2.35;;;;;;;;;;5028509;28;20025;-71
2023/03/27 15:17:19;;;;;;;4.13;1.50;;;;;;;;;;5037308;28;20177;-68
2023/03/27 15:20:09;;;;;;;5.25;1.90;;;;;;;;;;5026069;28;20075;-69
2023/03/27 15:23:23;;;;;;;4.97;2.10;;;;;;;;;;5024000;28;21860;-72
2023/03/27 15:26:17;;;;;;;3.33;1.48;;;;;;;;;;5008027;28;20034;-68
2023/03/27 15:29:02;;;;;;;4.75;1.65;;;;;;;;;;5030694;28;20416;-81
2023/03/27 15:31:49;;;;;;;4.90;2.40;;;;;;;;;;5011369;28;20041;-81
2023/03/27 15:34:44;;;;;;;4.47;1.70;;;;;;;;;;5039177;28;20045;-79
2023/03/27 15:37:30;;;;;;;4.20;1.40;;;;;;;;;;5041030;28;20535;-77
2023/03/27 15:40:22;;;;;;;3.67;1.25;;;;;;;;;;5025859;28;20106;-79
2023/03/27 15:43:07;;;;;;;7.25;2.97;;;;;;;;;;5026639;28;20112;-77
2023/03/27 15:45:55;;;;;;;5.75;1.45;;;;;;;;;;5009477;28;20029;-70
2023/03/27 15:48:48;;;;;;;4.78;1.52;;;;;;;;;;5023040;28;20467;-71
2023/03/27 15:51:33;;;;;;;4.28;2.03;;;;;;;;;;5026734;28;20130;-66
2023/03/27 15:54:41;;;;;;;7.32;2.75;;;;;;;;;;5027471;28;20025;-69
2023/03/27 15:57:30;;;;;;;5.28;2.03;;;;;;;;;;5038164;28;20159;-70
2023/03/27 16:00:16;;;;;;;4.60;2.00;;;;;;;;;;5024242;28;20036;-76
2023/03/27 16:03:01;;;;;;;3.13;1.55;;;;;;;;;;5021586;28;20388;-74
2023/03/27 16:05:51;;;;;;;2.70;1.20;;;;;;;;;;5029988;28;20021;-74
2023/03/27 16:08:39;;;;;;;3.38;1.63;;;;;;;;;;5034220;28;20040;-74
2023/03/27 16:11:39;;;;;;;2.30;1.27;;;;;;;;;;5022248;28;20044;-73
2023/03/27 16:14:27;;;;;;;5.78;1.52;;;;;;;;;;5027454;28;20038;-73
2023/03/27 16:17:23;;;;;;;3.97;1.48;;;;;;;;;;5015632;28;20117;-73
2023/03/27 16:20:08;;;;;;;3.38;1.83;;;;;;;;;;5015227;28;20017;-78
2023/03/27 16:22:54;;;;;;;2.10;1.27;;;;;;;;;;5025263;28;20376;-69
2023/03/27 16:25:40;;;;;;;4.60;1.60;;;;;;;;;;5028097;28;21362;-65
2023/03/27 16:28:28;;;;;;;3.92;2.25;;;;;;;;;;5025106;28;20037;-66
2023/03/27 16:31:15;;;;;;;3.92;1.20;;;;;;;;;;5025044;28;20108;-66
2023/03/27 16:34:07;;;;;;;2.95;1.30;;;;;;;;;;5021941;28;20045;-69
2023/03/27 16:36:53;;;;;;;0.95;0.90;;;;;;;;;;5037965;28;20034;-78
2023/03/27 16:39:38;;;;;;;2.88;1.23;;;;;;;;;;5023926;28;20551;-74
2023/03/27 16:42:23;;;;;;;1.48;1.00;;;;;;;;;;5033278;28;20025;-74
2023/03/27 16:45:09;;;;;;;5.60;1.17;;;;;;;;;;5027131;28;20025;-74
2023/03/27 16:47:54;;;;;;;4.20;1.20;;;;;;;;;;5024969;28;20045;-72
2023/03/27 16:50:39;;;;;;;2.20;1.30;;;;;;;;;;5024611;28;20083;-74
2023/03/27 16:53:25;;;;;;;1.75;1.30;;;;;;;;;;5012594;28;20041;-75